Time;durP1;ratioP1;P1;durP2;ratioP2;P2;SDS_P1;SDS_P2;PMS_P1;PMS_P2;Temp;Humidity;BMP_temperature;BMP_pressure;BME280_temperature;BME280_humidity;BME280_pressure;Samples;Min_cycle;Max_cycle;Signal;HPM_P1;HPM_P2
2022/03/13 00:01:56;;;;;;;10.50;6.47;;;8.10;99.90;;;;;;5085486;28;20310;-74
2022/03/13 00:04:22;;;;;;;5.28;4.10;;;8.10;99.90;;;;;;5084460;28;20794;-74
2022/03/13 00:06:50;;;;;;;5.72;4.35;;;8.00;99.90;;;;;;5085585;28;20638;-74
2022/03/13 00:09:22;;;;;;;6.75;6.05;;;8.10;99.90;;;;;;5085389;28;20288;-74
2022/03/13 00:11:53;;;;;;;8.30;6.47;;;8.00;99.90;;;;;;5084737;28;20546;-74
2022/03/13 00:14:20;;;;;;;6.55;5.95;;;8.10;99.90;;;;;;5084376;28;20359;-74
2022/03/13 00:16:49;;;;;;;6.53;5.18;;;8.00;99.90;;;;;;5084817;28;20228;-74
2022/03/13 00:19:19;;;;;;;5.85;5.35;;;8.00;99.90;;;;;;5085319;28;20211;-74
2022/03/13 00:21:52;;;;;;;7.43;5.15;;;8.00;99.90;;;;;;5086142;28;20208;-74
2022/03/13 00:24:20;;;;;;;8.10;4.65;;;8.00;99.90;;;;;;5083871;28;20769;-75
2022/03/13 00:26:49;;;;;;;7.00;5.70;;;7.90;99.90;;;;;;5084824;28;20220;-74
2022/03/13 00:29:17;;;;;;;5.30;4.78;;;7.80;99.90;;;;;;5089692;28;20260;-74
2022/03/13 00:31:43;;;;;;;6.45;5.20;;;7.90;99.90;;;;;;5091090;28;20245;-74
2022/03/13 00:34:10;;;;;;;5.95;5.22;;;7.90;99.90;;;;;;5092377;28;20227;-71
2022/03/13 00:36:37;;;;;;;4.97;4.40;;;7.80;99.90;;;;;;5091990;28;20828;-72
2022/03/13 00:39:04;;;;;;;7.63;5.28;;;7.80;99.90;;;;;;5085836;28;20273;-72
2022/03/13 00:41:31;;;;;;;8.23;5.65;;;7.70;99.90;;;;;;5084621;28;20286;-72
2022/03/13 00:43:57;;;;;;;9.57;6.75;;;7.70;99.90;;;;;;5084969;28;20196;-72
2022/03/13 00:46:25;;;;;;;6.50;5.22;;;7.70;99.90;;;;;;5085826;28;20223;-73
2022/03/13 00:48:52;;;;;;;6.40;5.43;;;7.70;99.90;;;;;;5084675;28;20277;-73
2022/03/13 00:51:19;;;;;;;6.88;5.60;;;7.60;99.90;;;;;;5085033;28;20208;-73
2022/03/13 00:53:46;;;;;;;5.50;5.03;;;7.50;99.90;;;;;;5086127;28;20219;-74
2022/03/13 00:56:12;;;;;;;6.07;4.85;;;7.40;99.90;;;;;;5088476;28;20247;-73
2022/03/13 00:58:40;;;;;;;9.07;6.28;;;7.30;99.90;;;;;;5087252;28;20225;-73
2022/03/13 01:01:07;;;;;;;5.35;4.60;;;7.30;99.90;;;;;;5088042;28;20550;-73
2022/03/13 01:03:50;;;;;;;10.48;6.25;;;7.20;99.90;;;;;;5087859;28;20216;-73
2022/03/13 01:06:17;;;;;;;5.70;5.10;;;7.20;99.90;;;;;;5088596;28;20298;-74
2022/03/13 01:08:46;;;;;;;7.88;5.22;;;7.20;99.90;;;;;;5087447;28;20241;-73
2022/03/13 01:11:14;;;;;;;6.47;5.45;;;7.10;99.90;;;;;;5087515;28;20204;-72
2022/03/13 01:13:40;;;;;;;9.30;5.28;;;7.10;99.90;;;;;;5087114;28;20253;-73
2022/03/13 01:16:14;;;;;;;7.40;5.47;;;7.10;99.90;;;;;;5088108;28;20292;-73
2022/03/13 01:18:44;;;;;;;7.70;5.80;;;7.10;99.90;;;;;;5088472;28;20215;-72
2022/03/13 01:21:12;;;;;;;7.10;5.05;;;7.10;99.90;;;;;;5088959;28;20364;-72
2022/03/13 01:23:40;;;;;;;5.75;5.25;;;7.00;99.90;;;;;;5087681;28;20238;-72
2022/03/13 01:26:36;;;;;;;5.57;4.80;;;7.00;99.90;;;;;;5084244;28;20231;-73
2022/03/13 01:29:06;;;;;;;8.75;5.55;;;7.00;99.90;;;;;;5084992;28;20295;-73
2022/03/13 01:31:34;;;;;;;9.52;6.32;;;6.90;99.90;;;;;;5088239;28;20287;-73
2022/03/13 01:34:01;;;;;;;8.38;5.70;;;6.80;99.90;;;;;;5088701;28;20222;-73
2022/03/13 01:36:30;;;;;;;5.05;4.55;;;6.80;99.90;;;;;;5093573;28;20214;-74
2022/03/13 01:38:59;;;;;;;7.55;5.53;;;6.80;99.90;;;;;;5096911;28;20340;-75
2022/03/13 01:41:28;;;;;;;5.22;4.55;;;6.80;99.90;;;;;;5100955;28;20204;-74
2022/03/13 01:43:55;;;;;;;6.38;4.95;;;6.80;99.90;;;;;;5103921;28;20285;-74
2022/03/13 01:46:22;;;;;;;4.45;3.85;;;6.80;99.40;;;;;;5101928;28;20235;-72
2022/03/13 01:48:54;;;;;;;6.72;4.82;;;6.90;99.20;;;;;;5090383;28;20205;-72
2022/03/13 01:51:21;;;;;;;4.53;3.70;;;6.90;99.20;;;;;;5091941;28;20221;-74
2022/03/13 01:53:52;;;;;;;5.72;4.30;;;6.80;99.20;;;;;;5090891;28;20205;-74
2022/03/13 01:56:19;;;;;;;7.32;4.95;;;6.70;99.00;;;;;;5090104;28;20306;-72
2022/03/13 01:58:49;;;;;;;5.32;4.88;;;6.70;99.00;;;;;;5088274;28;20284;-72
2022/03/13 02:01:17;;;;;;;6.15;4.47;;;6.60;99.20;;;;;;5088910;28;20207;-72
2022/03/13 02:03:44;;;;;;;7.43;3.85;;;6.60;99.30;;;;;;5086744;28;20196;-74
2022/03/13 02:06:11;;;;;;;6.82;4.38;;;6.50;99.20;;;;;;5087755;28;20232;-74
2022/03/13 02:08:37;;;;;;;4.18;3.65;;;6.60;98.50;;;;;;5088486;28;20199;-74
2022/03/13 02:11:06;;;;;;;4.40;4.00;;;6.60;98.10;;;;;;5088463;28;20203;-72
2022/03/13 02:13:34;;;;;;;8.32;5.32;;;6.60;98.10;;;;;;5088362;28;20299;-73
2022/03/13 02:16:01;;;;;;;4.88;4.35;;;6.60;97.60;;;;;;5088185;28;20343;-73
2022/03/13 02:18:28;;;;;;;4.35;3.95;;;6.60;97.20;;;;;;5088544;28;20215;-73
2022/03/13 02:20:55;;;;;;;5.65;4.40;;;6.70;96.80;;;;;;5087137;28;20257;-73
2022/03/13 02:23:25;;;;;;;5.13;4.05;;;6.70;96.60;;;;;;5087287;28;20665;-73
2022/03/13 02:25:53;;;;;;;7.18;5.65;;;6.60;96.50;;;;;;5087662;28;20575;-72
2022/03/13 02:28:22;;;;;;;6.55;4.38;;;6.50;96.10;;;;;;5086721;28;20252;-73
2022/03/13 02:30:50;;;;;;;5.05;4.45;;;6.60;95.60;;;;;;5087246;28;20216;-73
2022/03/13 02:33:20;;;;;;;5.57;4.55;;;6.60;95.50;;;;;;5086918;28;20255;-73
2022/03/13 02:35:52;;;;;;;5.07;3.92;;;6.50;95.50;;;;;;5087387;28;20359;-73
2022/03/13 02:38:19;;;;;;;6.78;5.32;;;6.50;94.90;;;;;;5087903;28;20281;-73
2022/03/13 02:40:47;;;;;;;4.60;4.15;;;6.60;94.30;;;;;;5087062;28;20303;-73
2022/03/13 02:43:13;;;;;;;4.30;3.50;;;6.60;94.00;;;;;;5087104;28;20337;-72
2022/03/13 02:45:40;;;;;;;5.43;4.95;;;6.60;93.90;;;;;;5087104;28;20273;-73
2022/03/13 02:48:09;;;;;;;5.20;4.45;;;6.60;93.60;;;;;;5087530;28;20204;-72
2022/03/13 02:50:36;;;;;;;6.78;4.50;;;6.60;93.20;;;;;;5088380;28;20241;-73
2022/03/13 02:53:04;;;;;;;4.90;3.95;;;6.50;93.10;;;;;;5087052;28;20669;-72
2022/03/13 02:55:32;;;;;;;5.32;4.82;;;6.50;93.00;;;;;;5087059;28;20235;-73
2022/03/13 02:58:01;;;;;;;6.93;4.70;;;6.40;93.00;;;;;;5087565;28;20227;-72
2022/03/13 03:00:42;;;;;;;6.20;4.88;;;6.50;92.70;;;;;;5087268;28;20215;-72
2022/03/13 03:03:09;;;;;;;4.53;4.13;;;6.40;92.60;;;;;;5086744;28;20589;-73
2022/03/13 03:05:37;;;;;;;4.60;4.20;;;6.50;92.30;;;;;;5087037;28;20257;-73
2022/03/13 03:08:04;;;;;;;5.00;4.38;;;6.50;92.00;;;;;;5087790;28;20196;-73
2022/03/13 03:10:31;;;;;;;4.40;3.95;;;6.50;92.00;;;;;;5087401;28;20280;-73
2022/03/13 03:12:59;;;;;;;5.28;3.63;;;6.40;91.80;;;;;;5087357;28;20210;-73
2022/03/13 03:15:26;;;;;;;4.57;4.18;;;6.40;91.70;;;;;;5086767;28;20642;-73
2022/03/13 03:17:53;;;;;;;6.10;4.65;;;6.40;91.60;;;;;;5087452;28;20245;-73
2022/03/13 03:20:21;;;;;;;6.00;4.55;;;6.30;91.90;;;;;;5086676;28;20306;-73
2022/03/13 03:22:48;;;;;;;4.95;4.53;;;6.20;91.70;;;;;;5086362;28;20200;-73
2022/03/13 03:25:15;;;;;;;7.43;5.28;;;6.20;91.70;;;;;;5087054;28;20220;-73
2022/03/13 03:27:42;;;;;;;3.47;3.20;;;6.20;91.60;;;;;;5085872;28;20249;-73
2022/03/13 03:30:12;;;;;;;4.90;4.05;;;6.20;91.30;;;;;;5086543;28;20299;-74
2022/03/13 03:32:39;;;;;;;7.93;5.35;;;6.20;90.90;;;;;;5086562;28;20252;-73
2022/03/13 03:35:06;;;;;;;4.80;3.70;;;6.20;90.60;;;;;;5086403;28;20235;-73
2022/03/13 03:37:33;;;;;;;3.58;3.25;;;6.30;90.40;;;;;;5086770;28;20963;-73
2022/03/13 03:40:00;;;;;;;5.03;4.13;;;6.30;90.50;;;;;;5086807;28;20309;-73
2022/03/13 03:42:27;;;;;;;4.88;3.60;;;6.30;90.60;;;;;;5086852;28;20285;-74
2022/03/13 03:44:53;;;;;;;5.80;4.05;;;6.20;90.80;;;;;;5086289;28;20661;-73
2022/03/13 03:47:21;;;;;;;7.85;4.80;;;6.10;90.80;;;;;;5086818;28;20216;-73
2022/03/13 03:49:48;;;;;;;4.15;3.75;;;6.10;91.00;;;;;;5086573;28;20215;-75
2022/03/13 03:52:15;;;;;;;4.53;4.07;;;6.00;91.10;;;;;;5086710;28;20205;-73
2022/03/13 03:54:41;;;;;;;5.50;4.72;;;6.00;91.20;;;;;;5085455;28;20248;-73
2022/03/13 03:57:08;;;;;;;7.25;4.97;;;6.00;91.40;;;;;;5087347;28;20234;-73
2022/03/13 03:59:35;;;;;;;3.30;3.00;;;6.00;91.20;;;;;;5086568;28;20213;-73
2022/03/13 04:02:01;;;;;;;4.78;4.28;;;6.10;90.90;;;;;;5088438;28;20208;-73
2022/03/13 04:04:29;;;;;;;4.93;3.97;;;6.10;90.70;;;;;;5087939;28;20270;-73
2022/03/13 04:06:56;;;;;;;4.65;3.63;;;6.20;90.20;;;;;;5090256;28;20235;-73
2022/03/13 04:09:23;;;;;;;8.60;4.53;;;6.20;90.00;;;;;;5087337;28;20206;-73
2022/03/13 04:11:51;;;;;;;4.00;3.60;;;6.20;90.00;;;;;;5086708;28;20583;-73
2022/03/13 04:14:20;;;;;;;3.38;3.08;;;6.20;89.30;;;;;;5085614;28;20238;-73
2022/03/13 04:16:47;;;;;;;4.05;3.67;;;6.20;89.30;;;;;;5086425;28;20786;-72
2022/03/13 04:19:14;;;;;;;5.25;4.15;;;6.20;88.90;;;;;;5087659;28;20196;-72
2022/03/13 04:21:42;;;;;;;4.80;3.20;;;6.30;89.30;;;;;;5092882;28;20683;-74
2022/03/13 04:24:10;;;;;;;8.35;3.33;;;6.30;89.30;;;;;;5076661;28;20666;-74
2022/03/13 04:26:39;;;;;;;4.30;3.90;;;6.30;89.50;;;;;;5091445;28;20224;-74
2022/03/13 04:29:06;;;;;;;3.50;3.20;;;6.30;90.50;;;;;;5102002;28;20209;-74
2022/03/13 04:31:35;;;;;;;4.20;3.78;;;6.30;92.40;;;;;;5102766;28;20610;-74
2022/03/13 04:34:02;;;;;;;5.35;4.43;;;6.30;91.20;;;;;;5102042;28;20212;-74
2022/03/13 04:36:32;;;;;;;6.22;3.53;;;6.30;91.00;;;;;;5102031;28;20227;-74
2022/03/13 04:39:01;;;;;;;7.25;4.18;;;6.30;90.70;;;;;;5101688;28;20487;-74
2022/03/13 04:41:28;;;;;;;5.53;4.30;;;6.30;89.90;;;;;;5103108;28;20238;-74
2022/03/13 04:43:54;;;;;;;4.97;4.22;;;6.30;89.00;;;;;;5102218;28;20242;-74
2022/03/13 04:46:21;;;;;;;6.88;4.20;;;6.30;88.30;;;;;;5105917;28;20303;-73
2022/03/13 04:48:48;;;;;;;3.70;3.50;;;6.30;87.50;;;;;;5106793;28;20200;-74
2022/03/13 04:51:15;;;;;;;7.70;4.30;;;6.30;87.20;;;;;;5106265;28;20205;-73
2022/03/13 04:53:42;;;;;;;4.50;3.80;;;6.30;86.10;;;;;;5104109;28;20252;-74
2022/03/13 04:56:10;;;;;;;4.72;4.32;;;6.30;85.80;;;;;;5108984;28;20212;-76
2022/03/13 04:58:37;;;;;;;6.18;4.15;;;6.30;85.60;;;;;;5107889;28;20415;-73
2022/03/13 05:01:04;;;;;;;6.50;5.10;;;6.30;85.30;;;;;;5099798;28;20824;-74
2022/03/13 05:03:32;;;;;;;4.63;3.10;;;6.30;85.40;;;;;;5105714;28;20219;-74
2022/03/13 05:05:58;;;;;;;3.58;2.85;;;6.40;85.30;;;;;;5106674;28;20227;-74
2022/03/13 05:08:26;;;;;;;5.03;4.20;;;6.40;85.00;;;;;;5105063;28;20276;-74
2022/03/13 05:10:53;;;;;;;4.03;3.55;;;6.40;84.90;;;;;;5106513;28;20203;-74
2022/03/13 05:13:23;;;;;;;4.55;3.80;;;6.40;84.60;;;;;;5105366;28;20827;-73
2022/03/13 05:15:51;;;;;;;7.65;4.15;;;6.50;83.60;;;;;;5106392;28;20288;-74
2022/03/13 05:18:17;;;;;;;4.00;3.60;;;6.50;83.70;;;;;;5107005;28;20235;-74
2022/03/13 05:20:44;;;;;;;3.50;3.20;;;6.50;84.00;;;;;;5102478;28;20210;-74
2022/03/13 05:23:11;;;;;;;6.07;3.70;;;6.50;83.70;;;;;;5104810;28;20202;-74
2022/03/13 05:25:40;;;;;;;6.57;4.28;;;6.50;83.80;;;;;;5106116;28;20249;-74
2022/03/13 05:28:08;;;;;;;3.25;3.00;;;6.50;83.30;;;;;;5106501;28;20224;-74
2022/03/13 05:30:37;;;;;;;3.72;3.42;;;6.50;83.50;;;;;;5105210;28;20206;-75
2022/03/13 05:33:04;;;;;;;4.20;3.75;;;6.50;83.10;;;;;;5105931;28;20212;-74
2022/03/13 05:35:31;;;;;;;3.92;3.55;;;6.50;83.10;;;;;;5105944;28;20258;-74
2022/03/13 05:37:58;;;;;;;5.60;4.50;;;6.60;82.20;;;;;;5106125;28;20209;-75
2022/03/13 05:40:25;;;;;;;5.25;4.75;;;6.50;82.00;;;;;;5106101;28;20206;-74
2022/03/13 05:42:55;;;;;;;4.32;3.92;;;6.50;81.90;;;;;;5101873;28;20199;-74
2022/03/13 05:45:25;;;;;;;2.88;2.67;;;6.50;81.90;;;;;;5097484;28;20234;-74
2022/03/13 05:47:56;;;;;;;6.00;4.20;;;6.60;81.30;;;;;;5094463;28;20555;-74
2022/03/13 05:50:25;;;;;;;5.40;3.83;;;6.60;81.20;;;;;;5094483;28;20213;-74
2022/03/13 05:52:55;;;;;;;6.28;3.80;;;6.60;81.00;;;;;;5093331;28;20437;-74
2022/03/13 05:55:25;;;;;;;4.68;3.40;;;6.60;80.90;;;;;;5091845;28;20225;-74
2022/03/13 05:57:53;;;;;;;4.72;4.15;;;6.60;80.50;;;;;;5089748;28;20224;-74
2022/03/13 06:00:21;;;;;;;5.40;3.70;;;6.70;79.70;;;;;;5091796;28;20284;-74
2022/03/13 06:02:48;;;;;;;6.60;4.13;;;6.70;79.40;;;;;;5090911;28;20282;-74
2022/03/13 06:05:17;;;;;;;5.05;4.10;;;6.80;79.20;;;;;;5091720;28;20249;-74
2022/03/13 06:07:44;;;;;;;6.72;4.47;;;6.80;79.10;;;;;;5092863;28;20756;-74
2022/03/13 06:10:11;;;;;;;3.78;3.22;;;6.80;78.90;;;;;;5091412;28;20268;-74
2022/03/13 06:12:38;;;;;;;4.10;3.70;;;6.90;78.10;;;;;;5090721;28;20213;-74
2022/03/13 06:15:06;;;;;;;5.20;4.32;;;6.90;78.40;;;;;;5090769;28;20214;-74
2022/03/13 06:17:34;;;;;;;5.32;3.75;;;6.90;78.60;;;;;;5084521;28;20462;-74
2022/03/13 06:20:00;;;;;;;5.53;4.05;;;6.90;78.40;;;;;;5091644;28;20689;-74
2022/03/13 06:22:28;;;;;;;8.43;4.07;;;6.90;78.00;;;;;;5095934;28;20331;-76
2022/03/13 06:24:55;;;;;;;4.32;3.85;;;6.90;78.10;;;;;;5087259;28;20199;-74
2022/03/13 06:27:22;;;;;;;3.42;3.15;;;7.00;78.40;;;;;;5088442;28;20272;-75
2022/03/13 06:29:49;;;;;;;5.57;4.68;;;7.00;77.70;;;;;;5087168;28;20205;-74
2022/03/13 06:32:15;;;;;;;4.32;3.90;;;7.00;77.70;;;;;;5089114;28;20212;-74
2022/03/13 06:34:42;;;;;;;3.35;3.15;;;7.00;78.00;;;;;;5086032;28;20276;-74
2022/03/13 06:37:09;;;;;;;3.72;3.42;;;7.10;78.10;;;;;;5093155;22;20240;-69
2022/03/13 06:39:37;;;;;;;5.38;4.57;;;7.10;78.10;;;;;;5066463;28;20256;-69
2022/03/13 06:42:04;;;;;;;5.00;4.40;;;7.10;77.70;;;;;;5062354;28;20208;-69
2022/03/13 06:44:31;;;;;;;7.30;4.20;;;7.20;78.10;;;;;;5069647;28;20202;-70
2022/03/13 06:46:58;;;;;;;4.72;4.18;;;7.20;77.60;;;;;;5070519;28;20221;-69
2022/03/13 06:49:25;;;;;;;6.18;3.67;;;7.20;77.30;;;;;;5069439;28;20219;-69
2022/03/13 06:51:52;;;;;;;6.60;5.13;;;7.20;76.60;;;;;;5070002;28;20216;-70
2022/03/13 06:54:18;;;;;;;6.07;4.82;;;7.30;76.90;;;;;;5069267;28;20204;-69
2022/03/13 06:56:48;;;;;;;4.18;3.80;;;7.30;76.80;;;;;;5061970;28;20229;-70
2022/03/13 06:59:15;;;;;;;6.22;4.38;;;7.30;76.00;;;;;;5068744;28;20281;-69
2022/03/13 07:01:41;;;;;;;3.78;3.45;;;7.30;75.90;;;;;;5069774;28;20201;-69
2022/03/13 07:04:08;;;;;;;12.43;4.05;;;7.40;76.40;;;;;;5069194;28;20254;-69
2022/03/13 07:06:35;;;;;;;4.57;3.70;;;7.40;76.40;;;;;;5070260;28;20633;-70
2022/03/13 07:09:01;;;;;;;6.03;4.80;;;7.50;76.30;;;;;;5065163;28;20323;-70
2022/03/13 07:11:29;;;;;;;5.05;3.38;;;7.50;75.50;;;;;;5069044;28;20197;-69
2022/03/13 07:13:58;;;;;;;5.53;4.57;;;7.50;75.50;;;;;;5068353;28;20257;-69
2022/03/13 07:16:25;;;;;;;4.07;3.42;;;7.60;75.10;;;;;;5069112;28;20241;-70
2022/03/13 07:18:52;;;;;;;5.70;3.78;;;7.60;74.70;;;;;;5062773;28;20407;-69
2022/03/13 07:21:18;;;;;;;4.63;3.72;;;7.70;74.10;;;;;;5067781;28;20229;-69
2022/03/13 07:23:45;;;;;;;4.57;4.05;;;7.80;74.10;;;;;;5069168;28;20739;-69
2022/03/13 07:26:13;;;;;;;4.15;3.20;;;7.90;74.10;;;;;;5069523;28;20270;-68
2022/03/13 07:28:39;;;;;;;4.85;4.45;;;7.90;74.10;;;;;;5067867;28;20670;-68
2022/03/13 07:31:07;;;;;;;4.70;4.15;;;8.00;74.00;;;;;;5068841;28;20201;-69
2022/03/13 07:33:34;;;;;;;3.88;3.55;;;8.00;73.60;;;;;;5068457;28;20258;-70
2022/03/13 07:36:02;;;;;;;4.85;4.22;;;7.90;73.20;;;;;;5068745;28;20216;-70
2022/03/13 07:38:29;;;;;;;4.28;3.88;;;7.90;73.40;;;;;;5068314;28;20205;-70
2022/03/13 07:40:56;;;;;;;5.70;4.65;;;8.00;74.00;;;;;;5068778;28;20209;-70
2022/03/13 07:43:22;;;;;;;4.25;3.47;;;8.10;72.90;;;;;;5068375;28;20288;-70
2022/03/13 07:45:49;;;;;;;11.95;4.43;;;8.20;72.90;;;;;;5063447;28;20652;-70
2022/03/13 07:48:17;;;;;;;4.15;3.85;;;8.20;72.80;;;;;;5066424;28;20247;-69
2022/03/13 07:50:44;;;;;;;4.97;3.85;;;8.20;72.90;;;;;;5069433;28;20250;-69
2022/03/13 07:53:11;;;;;;;5.07;3.80;;;8.20;72.60;;;;;;5067718;28;20823;-69
2022/03/13 07:55:37;;;;;;;6.43;3.97;;;8.20;71.50;;;;;;5068334;28;20719;-69
2022/03/13 07:58:04;;;;;;;4.20;3.80;;;8.10;71.70;;;;;;5064809;28;20204;-70
2022/03/13 08:00:31;;;;;;;4.80;3.97;;;8.10;71.70;;;;;;5068461;28;20200;-69
2022/03/13 08:02:57;;;;;;;4.53;4.00;;;8.10;71.80;;;;;;5068843;28;20242;-68
2022/03/13 08:05:26;;;;;;;6.35;5.00;;;8.10;71.60;;;;;;5072436;28;20209;-64
2022/03/13 08:07:54;;;;;;;4.18;3.78;;;8.10;72.50;;;;;;5072296;28;20204;-64
2022/03/13 08:10:23;;;;;;;3.65;3.35;;;8.30;73.90;;;;;;5072416;28;20728;-65
2022/03/13 08:12:50;;;;;;;5.03;4.53;;;8.60;73.40;;;;;;5070115;28;20875;-65
2022/03/13 08:15:17;;;;;;;5.90;4.63;;;8.80;73.10;;;;;;5072988;28;20211;-63
2022/03/13 08:17:44;;;;;;;4.88;4.13;;;9.10;72.50;;;;;;5073139;28;20228;-65
2022/03/13 08:20:12;;;;;;;4.65;3.70;;;9.40;71.30;;;;;;5072663;28;20646;-63
2022/03/13 08:22:41;;;;;;;4.90;4.40;;;9.60;70.50;;;;;;5069843;28;20289;-71
2022/03/13 08:25:08;;;;;;;3.90;3.40;;;9.50;70.10;;;;;;5072930;28;20469;-72
2022/03/13 08:27:35;;;;;;;5.87;4.50;;;9.50;70.80;;;;;;5074341;28;20467;-72
2022/03/13 08:30:02;;;;;;;4.80;3.67;;;9.60;69.10;;;;;;5073211;28;20863;-72
2022/03/13 08:32:29;;;;;;;6.53;4.47;;;9.50;69.00;;;;;;5081047;28;20443;-72
2022/03/13 08:34:56;;;;;;;7.53;5.13;;;9.60;69.10;;;;;;5088065;28;20523;-72
2022/03/13 08:37:23;;;;;;;5.03;4.57;;;9.70;69.10;;;;;;5083743;28;20296;-72
2022/03/13 08:39:51;;;;;;;5.43;4.93;;;9.80;68.80;;;;;;5065839;28;20455;-72
2022/03/13 08:42:18;;;;;;;6.03;5.30;;;9.90;69.60;;;;;;5073996;28;20545;-71
2022/03/13 08:44:45;;;;;;;6.67;4.50;;;9.90;69.50;;;;;;5072231;28;20721;-71
2022/03/13 08:47:11;;;;;;;4.30;3.90;;;9.90;69.30;;;;;;5077636;28;20500;-71
2022/03/13 08:49:38;;;;;;;5.50;4.50;;;10.00;68.60;;;;;;5079103;28;20558;-71
2022/03/13 08:52:05;;;;;;;5.13;4.50;;;10.10;68.30;;;;;;5076441;28;20447;-71
2022/03/13 08:54:32;;;;;;;6.90;5.10;;;10.20;67.80;;;;;;5075700;28;20450;-70
2022/03/13 08:57:01;;;;;;;7.77;5.43;;;10.30;68.00;;;;;;5076491;28;20517;-72
2022/03/13 08:59:28;;;;;;;6.47;3.80;;;10.20;67.50;;;;;;5074919;28;20459;-72
2022/03/13 09:01:55;;;;;;;7.33;4.03;;;10.20;68.10;;;;;;5073190;28;20455;-75
2022/03/13 09:04:21;;;;;;;5.37;3.90;;;10.20;68.00;;;;;;5065924;28;20447;-74
2022/03/13 09:06:49;;;;;;;5.03;3.97;;;10.30;67.80;;;;;;5071805;28;20496;-71
2022/03/13 09:09:18;;;;;;;5.33;4.47;;;10.40;68.20;;;;;;5071358;28;20459;-71
2022/03/13 09:11:47;;;;;;;5.63;4.73;;;10.50;67.70;;;;;;5072564;28;20470;-74
2022/03/13 09:14:15;;;;;;;5.90;4.00;;;10.50;67.40;;;;;;5067393;28;20974;-72
2022/03/13 09:16:42;;;;;;;5.43;4.00;;;10.40;67.70;;;;;;5065774;28;20487;-71
2022/03/13 09:19:09;;;;;;;6.87;5.07;;;10.30;67.90;;;;;;5071712;28;20461;-71
2022/03/13 09:21:38;;;;;;;4.00;3.60;;;10.30;68.20;;;;;;5073876;28;20504;-70
2022/03/13 09:24:07;;;;;;;5.80;3.90;;;10.30;68.30;;;;;;5072307;28;20463;-72
2022/03/13 09:26:35;;;;;;;6.20;4.90;;;10.40;68.60;;;;;;5074505;28;20586;-71
2022/03/13 09:29:02;;;;;;;4.10;3.80;;;10.50;68.50;;;;;;5070266;28;20536;-73
2022/03/13 09:31:30;;;;;;;5.00;4.20;;;10.40;68.10;;;;;;5073678;28;21006;-71
2022/03/13 09:33:57;;;;;;;7.50;4.77;;;10.40;68.20;;;;;;5070478;28;20447;-73
2022/03/13 09:36:24;;;;;;;3.93;3.63;;;10.50;68.50;;;;;;5074788;28;21000;-74
2022/03/13 09:38:51;;;;;;;5.00;4.50;;;10.50;68.60;;;;;;5072931;28;20535;-74
2022/03/13 09:41:17;;;;;;;7.10;4.73;;;10.70;69.20;;;;;;5073367;28;20448;-73
2022/03/13 09:43:44;;;;;;;5.80;5.03;;;10.80;68.70;;;;;;5076797;28;20447;-72
2022/03/13 09:46:11;;;;;;;6.80;4.30;;;10.90;68.50;;;;;;5074436;28;21035;-72
2022/03/13 09:48:40;;;;;;;8.80;4.40;;;11.20;69.10;;;;;;5077882;28;20451;-72
2022/03/13 09:51:09;;;;;;;7.47;5.33;;;11.40;69.00;;;;;;5077155;28;20436;-71
2022/03/13 09:53:35;;;;;;;6.87;5.13;;;11.60;68.90;;;;;;5079992;28;20954;-71
2022/03/13 09:56:04;;;;;;;5.97;4.97;;;11.70;68.70;;;;;;5073349;28;20467;-73
2022/03/13 09:58:32;;;;;;;6.00;5.10;;;12.00;68.50;;;;;;5071704;28;20549;-73
2022/03/13 10:00:59;;;;;;;5.70;4.73;;;12.10;68.10;;;;;;5073124;28;20452;-73
2022/03/13 10:03:26;;;;;;;5.80;5.20;;;12.00;67.80;;;;;;5071240;28;20463;-72
2022/03/13 10:05:56;;;;;;;5.97;5.37;;;12.00;68.10;;;;;;5071213;28;20467;-73
2022/03/13 10:08:28;;;;;;;5.77;4.40;;;12.10;67.90;;;;;;5072404;28;20452;-74
2022/03/13 10:10:55;;;;;;;8.73;6.27;;;12.10;67.90;;;;;;5070876;28;20965;-72
2022/03/13 10:13:35;;;;;;;6.50;4.93;;;12.30;68.60;;;;;;5072817;28;20505;-72
2022/03/13 10:16:02;;;;;;;5.53;4.83;;;12.50;68.30;;;;;;5071475;28;20490;-75
2022/03/13 10:18:29;;;;;;;6.40;5.17;;;12.60;68.80;;;;;;5072146;28;20483;-71
2022/03/13 10:20:59;;;;;;;4.97;4.47;;;12.70;68.90;;;;;;5079838;28;20506;-73
2022/03/13 10:23:27;;;;;;;7.57;5.77;;;12.90;68.70;;;;;;5080724;28;20447;-71
2022/03/13 10:25:54;;;;;;;6.03;5.43;;;13.10;68.40;;;;;;5075698;28;20547;-72
2022/03/13 10:28:23;;;;;;;9.80;5.80;;;13.30;68.20;;;;;;5076445;28;20452;-74
2022/03/13 10:31:06;;;;;;;9.90;5.60;;;13.40;68.30;;;;;;5079736;28;20439;-71
2022/03/13 10:33:52;;;;;;;9.40;5.47;;;13.70;68.40;;;;;;5077810;28;20443;-72
2022/03/13 10:36:22;;;;;;;5.60;5.20;;;13.90;68.50;;;;;;5066242;28;20483;-72
2022/03/13 10:38:50;;;;;;;6.10;5.50;;;14.10;68.60;;;;;;5075823;28;20467;-71
2022/03/13 10:41:17;;;;;;;6.07;5.33;;;14.20;68.80;;;;;;5073112;28;20458;-73
2022/03/13 10:43:57;;;;;;;6.77;5.50;;;14.30;69.10;;;;;;5073183;28;20993;-72
2022/03/13 10:46:26;;;;;;;7.23;6.10;;;14.50;69.60;;;;;;5073921;28;20530;-73
2022/03/13 10:48:54;;;;;;;6.30;5.70;;;14.70;69.50;;;;;;5072153;28;20447;-73
2022/03/13 10:51:34;;;;;;;6.00;5.00;;;15.00;69.00;;;;;;5074582;28;20455;-73
2022/03/13 10:54:02;;;;;;;5.83;5.33;;;15.30;68.70;;;;;;5068787;28;20458;-73
2022/03/13 10:56:29;;;;;;;7.00;5.80;;;15.50;68.00;;;;;;5073168;28;20472;-74
2022/03/13 10:58:58;;;;;;;6.90;5.73;;;15.70;67.60;;;;;;5070728;28;21237;-76
2022/03/13 11:01:25;;;;;;;7.30;5.50;;;15.90;67.50;;;;;;5071850;28;20522;-72
2022/03/13 11:03:54;;;;;;;6.40;5.77;;;16.30;67.80;;;;;;5072643;28;20450;-75
2022/03/13 11:06:22;;;;;;;7.27;5.30;;;16.40;67.40;;;;;;5073648;28;20478;-73
2022/03/13 11:08:53;;;;;;;8.73;5.90;;;16.60;67.60;;;;;;5067713;28;21011;-76
2022/03/13 11:11:20;;;;;;;8.00;6.27;;;16.60;67.60;;;;;;5079775;28;20474;-74
2022/03/13 11:13:52;;;;;;;7.03;5.80;;;16.50;67.40;;;;;;5081434;28;20483;-72
2022/03/13 11:16:22;;;;;;;7.80;5.70;;;16.60;68.10;;;;;;5084723;28;20558;-75
2022/03/13 11:18:52;;;;;;;6.47;5.87;;;16.80;67.20;;;;;;5085534;28;20474;-73
2022/03/13 11:21:19;;;;;;;6.33;5.33;;;16.80;67.20;;;;;;5083637;28;20986;-75
2022/03/13 11:23:47;;;;;;;7.23;5.30;;;16.90;67.20;;;;;;5081831;28;20450;-75
2022/03/13 11:26:16;;;;;;;7.83;7.07;;;17.30;67.80;;;;;;5072603;28;20550;-70
2022/03/13 11:28:44;;;;;;;8.53;5.83;;;17.80;67.90;;;;;;5067308;28;20538;-65
2022/03/13 11:31:31;;;;;;;6.47;5.87;;;18.30;68.00;;;;;;5077289;28;20862;-66
2022/03/13 11:34:13;;;;;;;6.10;5.00;;;18.50;67.80;;;;;;5071371;28;20458;-66
2022/03/13 11:36:41;;;;;;;6.77;5.27;;;19.00;67.10;;;;;;5068668;28;20595;-66
2022/03/13 11:39:09;;;;;;;6.47;5.40;;;19.40;66.30;;;;;;5074662;28;20518;-67
2022/03/13 11:41:41;;;;;;;7.53;6.50;;;19.70;65.30;;;;;;5073560;28;20484;-66
2022/03/13 11:44:37;;;;;;;9.10;7.13;;;20.30;65.50;;;;;;5075981;28;20462;-67
2022/03/13 11:47:20;;;;;;;6.90;6.23;;;20.70;63.70;;;;;;5071999;28;20478;-67
2022/03/13 11:49:47;;;;;;;7.97;6.20;;;20.90;62.90;;;;;;5088053;28;20467;-65
2022/03/13 11:52:30;;;;;;;8.40;6.23;;;21.10;62.00;;;;;;5092531;28;20474;-67
2022/03/13 11:55:00;;;;;;;6.60;5.43;;;21.40;62.10;;;;;;5082334;28;20439;-66
2022/03/13 11:57:29;;;;;;;6.90;6.20;;;22.00;62.00;;;;;;5080463;28;20482;-65
2022/03/13 12:00:31;;;;;;;5.90;5.40;;;22.50;60.60;;;;;;5073828;28;20451;-66
2022/03/13 12:03:14;;;;;;;6.70;6.10;;;23.10;61.30;;;;;;5070799;28;20413;-66
2022/03/13 12:05:51;;;;;;;6.07;5.47;;;23.20;58.70;;;;;;5070515;28;21013;-69
2022/03/13 12:08:21;;;;;;;7.57;6.10;;;23.40;58.90;;;;;;5072339;28;20443;-67
2022/03/13 12:10:49;;;;;;;8.63;6.47;;;23.30;59.30;;;;;;5071057;28;20453;-67
2022/03/13 12:13:18;;;;;;;7.10;5.87;;;23.70;59.10;;;;;;5068534;28;20450;-66
2022/03/13 12:15:58;;;;;;;5.27;4.60;;;24.10;58.60;;;;;;5078123;28;20459;-67
2022/03/13 12:18:28;;;;;;;6.70;5.40;;;24.80;58.30;;;;;;5091117;28;20486;-66
2022/03/13 12:21:04;;;;;;;6.00;5.40;;;24.20;57.60;;;;;;5091720;28;20514;-66
2022/03/13 12:23:33;;;;;;;7.97;6.50;;;23.60;58.00;;;;;;5067456;28;20533;-66
2022/03/13 12:26:20;;;;;;;6.03;4.93;;;23.60;58.30;;;;;;5071499;28;20478;-67
2022/03/13 12:28:48;;;;;;;6.20;5.60;;;22.90;58.20;;;;;;5071278;28;20465;-67
2022/03/13 12:31:16;;;;;;;6.80;5.60;;;22.10;58.20;;;;;;5069429;28;20802;-67
2022/03/13 12:33:46;;;;;;;6.57;5.97;;;22.60;58.80;;;;;;5070680;28;20481;-66
2022/03/13 12:36:13;;;;;;;6.67;6.00;;;24.30;58.30;;;;;;5069532;28;20540;-67
2022/03/13 12:38:43;;;;;;;4.63;4.23;;;25.20;56.50;;;;;;5065537;28;20493;-67
2022/03/13 12:41:11;;;;;;;5.67;5.10;;;26.10;55.90;;;;;;5070529;28;20848;-66
2022/03/13 12:43:50;;;;;;;6.13;5.50;;;26.00;55.10;;;;;;5069493;28;20451;-66
2022/03/13 12:46:18;;;;;;;7.40;5.00;;;26.40;54.30;;;;;;5065952;28;20445;-67
2022/03/13 12:48:53;;;;;;;5.43;4.93;;;27.10;53.80;;;;;;5071771;28;20456;-66
2022/03/13 12:51:35;;;;;;;4.97;4.47;;;26.80;53.30;;;;;;5069791;28;20478;-68
2022/03/13 12:54:04;;;;;;;6.50;5.60;;;27.10;53.10;;;;;;5071509;28;20447;-67
2022/03/13 12:56:30;;;;;;;5.97;5.40;;;27.10;53.20;;;;;;5073595;28;20546;-66
2022/03/13 12:58:58;;;;;;;5.47;4.97;;;26.40;52.20;;;;;;5074326;28;20453;-65
2022/03/13 13:01:25;;;;;;;6.03;5.03;;;26.10;53.30;;;;;;5073304;28;20982;-66